Time;durP1;ratioP1;P1;durP2;ratioP2;P2;SDS_P1;SDS_P2;PMS_P1;PMS_P2;Temp;Humidity;BMP_temperature;BMP_pressure;BME280_temperature;BME280_humidity;BME280_pressure;Samples;Min_cycle;Max_cycle;Signal;HPM_P1;HPM_P2
2023/06/23 00:00:11;;;;;;;10.00;7.65;;;;;;;;;;4920478;28;20039;-82
2023/06/23 00:02:39;;;;;;;11.23;8.32;;;;;;;;;;4930553;28;20066;-84
2023/06/23 00:05:07;;;;;;;10.40;8.18;;;;;;;;;;4905628;28;20071;-82
2023/06/23 00:07:35;;;;;;;11.05;7.70;;;;;;;;;;4933535;28;20443;-84
2023/06/23 00:10:05;;;;;;;10.82;7.78;;;;;;;;;;4920719;28;20490;-83
2023/06/23 00:12:35;;;;;;;9.20;7.15;;;;;;;;;;4935027;28;20031;-84
2023/06/23 00:15:02;;;;;;;8.52;6.85;;;;;;;;;;4918171;28;20504;-85
2023/06/23 00:17:27;;;;;;;10.80;8.18;;;;;;;;;;4917237;28;20550;-83
2023/06/23 00:19:53;;;;;;;9.02;6.78;;;;;;;;;;4904647;28;20054;-84
2023/06/23 00:22:21;;;;;;;9.65;7.40;;;;;;;;;;4920400;28;20559;-85
2023/06/23 00:24:46;;;;;;;9.52;7.07;;;;;;;;;;4916018;29;20035;-85
2023/06/23 00:27:12;;;;;;;9.95;7.28;;;;;;;;;;4916160;29;20047;-86
2023/06/23 00:29:37;;;;;;;8.75;7.47;;;;;;;;;;4918442;28;20031;-83
2023/06/23 00:32:03;;;;;;;9.77;7.47;;;;;;;;;;4931697;28;20150;-85
2023/06/23 00:34:29;;;;;;;9.70;7.20;;;;;;;;;;4914724;28;20024;-83
2023/06/23 00:36:54;;;;;;;9.10;7.25;;;;;;;;;;4920719;28;20043;-82
2023/06/23 00:39:20;;;;;;;8.82;6.85;;;;;;;;;;4934971;28;20031;-85
2023/06/23 00:41:45;;;;;;;8.73;6.38;;;;;;;;;;4906397;29;20516;-84
2023/06/23 00:44:11;;;;;;;9.73;7.30;;;;;;;;;;4934842;28;20035;-85
2023/06/23 00:46:37;;;;;;;8.90;6.93;;;;;;;;;;4916861;28;20043;-83
2023/06/23 00:49:02;;;;;;;10.90;7.72;;;;;;;;;;4911588;28;20559;-84
2023/06/23 00:51:29;;;;;;;10.77;8.07;;;;;;;;;;4930964;28;20039;-83
2023/06/23 00:53:56;;;;;;;9.35;7.28;;;;;;;;;;4935227;28;20046;-84
2023/06/23 00:56:30;;;;;;;9.93;7.65;;;;;;;;;;4898979;28;20035;-81
2023/06/23 00:58:56;;;;;;;11.15;7.90;;;;;;;;;;4931508;28;20380;-84
2023/06/23 01:01:21;;;;;;;10.60;7.93;;;;;;;;;;4933412;28;20496;-85
2023/06/23 01:03:48;;;;;;;11.32;8.75;;;;;;;;;;4933498;28;20102;-83
2023/06/23 01:06:19;;;;;;;13.25;9.18;;;;;;;;;;4935127;28;20547;-85
2023/06/23 01:09:05;;;;;;;10.68;8.57;;;;;;;;;;4932756;28;20067;-83
2023/06/23 01:11:41;;;;;;;11.70;8.48;;;;;;;;;;4921317;28;20098;-86
2023/06/23 01:14:31;;;;;;;12.02;9.35;;;;;;;;;;4922029;28;20122;-86
2023/06/23 01:17:10;;;;;;;12.10;8.45;;;;;;;;;;4931101;28;20044;-84
2023/06/23 01:19:47;;;;;;;10.82;8.90;;;;;;;;;;4916354;28;20455;-84
2023/06/23 01:22:13;;;;;;;11.95;8.98;;;;;;;;;;4916886;29;20111;-87
2023/06/23 01:24:56;;;;;;;10.70;8.55;;;;;;;;;;4932601;28;20043;-85
2023/06/23 01:27:57;;;;;;;10.55;7.70;;;;;;;;;;4906213;28;20051;-82
2023/06/23 01:30:27;;;;;;;12.18;8.90;;;;;;;;;;4852200;29;20032;-83
2023/06/23 01:33:03;;;;;;;11.40;8.77;;;;;;;;;;4922100;28;20127;-85
2023/06/23 01:35:33;;;;;;;12.18;8.88;;;;;;;;;;4931117;28;20134;-86
2023/06/23 01:38:11;;;;;;;10.80;8.25;;;;;;;;;;4910060;28;20043;-87
2023/06/23 01:40:39;;;;;;;10.15;8.00;;;;;;;;;;4904449;28;20039;-88
2023/06/23 01:43:06;;;;;;;12.20;8.90;;;;;;;;;;4913491;28;20083;-86
2023/06/23 01:45:33;;;;;;;12.07;8.48;;;;;;;;;;4916207;28;20118;-86
2023/06/23 01:48:05;;;;;;;11.77;8.25;;;;;;;;;;4916502;28;20507;-87
2023/06/23 01:50:32;;;;;;;9.93;8.05;;;;;;;;;;4911543;28;20411;-86
2023/06/23 01:52:58;;;;;;;9.82;7.88;;;;;;;;;;4934186;28;20047;-84
2023/06/23 01:55:24;;;;;;;11.77;8.32;;;;;;;;;;4906880;28;20115;-86
2023/06/23 01:57:51;;;;;;;10.82;8.30;;;;;;;;;;4946414;28;20495;-83
2023/06/23 02:00:21;;;;;;;10.52;7.80;;;;;;;;;;4920098;29;20040;-86
2023/06/23 02:02:50;;;;;;;11.10;8.55;;;;;;;;;;4914612;28;20528;-81
2023/06/23 02:05:17;;;;;;;10.95;8.18;;;;;;;;;;4916350;29;20042;-85
2023/06/23 02:07:46;;;;;;;11.73;8.63;;;;;;;;;;4917395;29;20035;-84
2023/06/23 02:10:12;;;;;;;13.82;8.93;;;;;;;;;;4918306;29;20046;-81
2023/06/23 02:12:39;;;;;;;12.05;8.68;;;;;;;;;;4931945;28;20043;-85
2023/06/23 02:15:08;;;;;;;11.20;8.98;;;;;;;;;;4932702;28;20051;-87
2023/06/23 02:17:34;;;;;;;12.23;9.30;;;;;;;;;;4917051;28;20491;-86
2023/06/23 02:20:05;;;;;;;12.85;8.32;;;;;;;;;;4923000;28;20048;-86
2023/06/23 02:22:31;;;;;;;10.88;8.65;;;;;;;;;;4916743;28;20036;-86
2023/06/23 02:24:56;;;;;;;11.77;8.43;;;;;;;;;;4918295;28;20027;-86
2023/06/23 02:27:22;;;;;;;11.65;8.68;;;;;;;;;;4908932;28;20043;-83
2023/06/23 02:29:49;;;;;;;10.98;8.23;;;;;;;;;;4935193;28;20051;-83
2023/06/23 02:32:16;;;;;;;10.05;8.10;;;;;;;;;;4933864;28;20047;-86
2023/06/23 02:34:46;;;;;;;11.88;8.73;;;;;;;;;;4911430;28;20095;-85
2023/06/23 02:37:12;;;;;;;10.88;8.32;;;;;;;;;;4912005;29;20055;-86
2023/06/23 02:39:41;;;;;;;13.95;8.88;;;;;;;;;;4933393;28;20559;-87
2023/06/23 02:42:07;;;;;;;12.20;8.77;;;;;;;;;;4901587;28;20046;-85
2023/06/23 02:44:36;;;;;;;10.27;8.02;;;;;;;;;;4924447;28;20121;-86
2023/06/23 02:47:03;;;;;;;12.10;8.40;;;;;;;;;;4897240;28;20043;-86
2023/06/23 02:49:30;;;;;;;11.85;7.90;;;;;;;;;;4929932;28;20044;-85
2023/06/23 02:52:01;;;;;;;9.40;7.95;;;;;;;;;;4907342;28;20073;-86
2023/06/23 02:54:31;;;;;;;13.02;8.75;;;;;;;;;;4947517;28;20050;-86
2023/06/23 02:56:58;;;;;;;15.00;7.75;;;;;;;;;;4933063;28;20039;-86
2023/06/23 02:59:25;;;;;;;12.10;7.63;;;;;;;;;;4936507;28;20050;-85
2023/06/23 03:01:53;;;;;;;10.50;7.32;;;;;;;;;;4935638;28;20053;-85
2023/06/23 03:04:19;;;;;;;10.93;7.68;;;;;;;;;;4935001;28;20043;-85
2023/06/23 03:06:44;;;;;;;10.02;7.38;;;;;;;;;;4917283;29;20107;-86
2023/06/23 03:09:10;;;;;;;10.35;7.45;;;;;;;;;;4936217;28;20044;-84
2023/06/23 03:11:36;;;;;;;9.27;7.13;;;;;;;;;;4917339;28;20518;-86
2023/06/23 03:14:03;;;;;;;10.77;7.70;;;;;;;;;;4914024;28;20146;-85
2023/06/23 03:17:06;;;;;;;11.82;7.63;;;;;;;;;;4918671;28;20334;-86
2023/06/23 03:20:07;;;;;;;11.60;7.82;;;;;;;;;;4917622;28;20039;-86
2023/06/23 03:22:39;;;;;;;10.18;7.13;;;;;;;;;;4906922;28;20036;-85
2023/06/23 03:25:09;;;;;;;9.48;7.60;;;;;;;;;;4921969;28;20031;-87
2023/06/23 03:27:36;;;;;;;9.55;7.57;;;;;;;;;;4921949;28;20086;-83
2023/06/23 03:30:07;;;;;;;11.40;7.90;;;;;;;;;;4935910;28;20122;-87
2023/06/23 03:32:36;;;;;;;11.63;7.65;;;;;;;;;;4933106;28;20031;-86
2023/06/23 03:35:07;;;;;;;10.45;7.70;;;;;;;;;;4905034;28;20031;-84
2023/06/23 03:37:37;;;;;;;13.57;8.32;;;;;;;;;;4930771;28;20035;-87
2023/06/23 03:40:06;;;;;;;11.05;8.40;;;;;;;;;;4912239;29;20043;-86
2023/06/23 03:42:35;;;;;;;10.50;8.20;;;;;;;;;;4925126;28;20059;-86
2023/06/23 03:45:02;;;;;;;10.98;8.70;;;;;;;;;;4934529;28;20058;-82
2023/06/23 03:47:31;;;;;;;13.02;8.93;;;;;;;;;;4919519;28;20038;-87
2023/06/23 03:50:02;;;;;;;10.93;8.40;;;;;;;;;;4934076;28;20502;-87
2023/06/23 03:52:29;;;;;;;12.07;8.50;;;;;;;;;;4933786;28;20550;-86
2023/06/23 03:54:54;;;;;;;12.95;8.27;;;;;;;;;;4922359;28;20053;-84
2023/06/23 03:57:23;;;;;;;13.88;7.97;;;;;;;;;;4935614;28;20028;-81
2023/06/23 03:59:55;;;;;;;10.88;7.63;;;;;;;;;;4905603;28;20106;-86
2023/06/23 04:02:22;;;;;;;11.55;9.07;;;;;;;;;;4923396;28;21506;-85
2023/06/23 04:04:49;;;;;;;11.45;7.90;;;;;;;;;;4909599;28;20493;-80
2023/06/23 04:07:15;;;;;;;11.05;8.20;;;;;;;;;;4918572;29;20043;-85
2023/06/23 04:09:44;;;;;;;11.43;8.23;;;;;;;;;;4926065;28;20036;-83
2023/06/23 04:12:12;;;;;;;11.77;8.35;;;;;;;;;;4915443;28;20848;-85
2023/06/23 04:14:38;;;;;;;11.68;8.20;;;;;;;;;;4920046;28;20496;-84
2023/06/23 04:17:08;;;;;;;11.63;8.88;;;;;;;;;;4930830;28;20158;-82
2023/06/23 04:19:34;;;;;;;10.40;8.20;;;;;;;;;;4894274;29;20480;-84
2023/06/23 04:22:21;;;;;;;11.93;8.35;;;;;;;;;;4918861;28;20048;-86
2023/06/23 04:24:47;;;;;;;11.13;7.82;;;;;;;;;;4871334;29;20493;-83
2023/06/23 04:27:16;;;;;;;11.35;8.25;;;;;;;;;;4858399;29;20919;-85
2023/06/23 04:29:44;;;;;;;11.52;8.75;;;;;;;;;;4843936;29;20492;-86
2023/06/23 04:32:11;;;;;;;10.10;8.27;;;;;;;;;;4843080;29;20037;-87
2023/06/23 04:34:37;;;;;;;10.85;8.27;;;;;;;;;;4861936;29;20528;-86
2023/06/23 04:37:17;;;;;;;10.93;8.10;;;;;;;;;;4874314;29;20044;-84
2023/06/23 04:39:56;;;;;;;11.35;8.88;;;;;;;;;;4861711;29;20040;-86
2023/06/23 04:42:25;;;;;;;10.40;7.85;;;;;;;;;;4874878;29;20044;-84
2023/06/23 04:44:56;;;;;;;11.73;9.32;;;;;;;;;;4863886;29;20105;-83
2023/06/23 04:47:44;;;;;;;11.90;8.77;;;;;;;;;;4854256;29;20041;-84
2023/06/23 04:50:16;;;;;;;11.52;8.23;;;;;;;;;;4805502;29;20858;-82
2023/06/23 04:52:46;;;;;;;11.50;8.70;;;;;;;;;;4791846;29;20046;-83
2023/06/23 04:55:14;;;;;;;12.45;9.65;;;;;;;;;;4789099;29;20050;-83
2023/06/23 04:57:40;;;;;;;14.85;9.57;;;;;;;;;;4806653;29;20065;-80
2023/06/23 05:00:07;;;;;;;12.30;9.47;;;;;;;;;;4789696;29;20054;-80
2023/06/23 05:02:34;;;;;;;14.63;10.00;;;;;;;;;;4843209;29;20077;-80
2023/06/23 05:05:00;;;;;;;11.97;8.80;;;;;;;;;;4844659;29;20409;-80
2023/06/23 05:07:27;;;;;;;12.13;9.55;;;;;;;;;;4838331;29;20072;-80
2023/06/23 05:09:53;;;;;;;12.27;9.68;;;;;;;;;;4856206;29;20048;-81
2023/06/23 05:12:19;;;;;;;14.38;9.20;;;;;;;;;;4847727;29;20041;-80
2023/06/23 05:14:46;;;;;;;12.73;9.02;;;;;;;;;;4859461;29;20463;-79
2023/06/23 05:17:23;;;;;;;12.98;9.63;;;;;;;;;;4856415;29;20037;-89
2023/06/23 05:19:49;;;;;;;13.53;9.70;;;;;;;;;;4840836;29;20106;-80
2023/06/23 05:22:17;;;;;;;14.60;9.63;;;;;;;;;;4842680;29;20037;-79
2023/06/23 05:24:43;;;;;;;;;;;;;;;;;;4857640;29;20049;-81
2023/06/23 05:27:09;;;;;;;13.98;9.43;;;;;;;;;;4885587;29;19919;-81
2023/06/23 05:29:40;;;;;;;12.50;9.40;;;;;;;;;;4916521;28;20040;-80
2023/06/23 05:32:09;;;;;;;12.73;9.32;;;;;;;;;;4931983;28;20047;-80
2023/06/23 05:34:35;;;;;;;12.13;9.00;;;;;;;;;;4916697;28;20035;-80
2023/06/23 05:37:01;;;;;;;14.77;9.75;;;;;;;;;;4915285;28;20122;-80
2023/06/23 05:39:28;;;;;;;12.30;9.35;;;;;;;;;;4919192;28;20043;-80
2023/06/23 05:41:54;;;;;;;13.60;9.68;;;;;;;;;;4916561;29;20047;-80
2023/06/23 05:44:19;;;;;;;13.10;9.88;;;;;;;;;;4931360;28;20404;-81
2023/06/23 05:46:46;;;;;;;12.88;9.68;;;;;;;;;;4915462;29;20137;-80
2023/06/23 05:49:18;;;;;;;12.95;9.60;;;;;;;;;;4890661;29;20095;-80
2023/06/23 05:51:45;;;;;;;14.25;10.15;;;;;;;;;;4918748;29;20038;-81
2023/06/23 05:54:11;;;;;;;14.02;10.90;;;;;;;;;;4915500;28;20095;-81
2023/06/23 05:56:42;;;;;;;14.38;10.50;;;;;;;;;;4947175;28;20036;-80
2023/06/23 05:59:14;;;;;;;13.95;10.90;;;;;;;;;;4916747;28;20534;-81
2023/06/23 06:01:40;;;;;;;12.57;10.57;;;;;;;;;;4915128;28;20066;-81
2023/06/23 06:04:10;;;;;;;13.30;10.67;;;;;;;;;;4913340;28;20445;-80
2023/06/23 06:06:37;;;;;;;14.73;11.73;;;;;;;;;;4915952;28;20046;-81
2023/06/23 06:09:04;;;;;;;14.85;11.63;;;;;;;;;;4915272;28;20040;-80
2023/06/23 06:11:30;;;;;;;16.13;11.82;;;;;;;;;;4914219;28;20039;-80
2023/06/23 06:13:57;;;;;;;16.20;11.68;;;;;;;;;;4918866;28;20901;-81
2023/06/23 06:16:23;;;;;;;15.30;12.25;;;;;;;;;;4930640;28;20492;-80
2023/06/23 06:18:52;;;;;;;15.57;12.38;;;;;;;;;;4907417;28;20078;-81
2023/06/23 06:21:17;;;;;;;15.90;12.35;;;;;;;;;;4918066;28;20487;-80
2023/06/23 06:23:44;;;;;;;15.10;12.05;;;;;;;;;;4916364;29;20039;-81
2023/06/23 06:26:10;;;;;;;15.20;12.43;;;;;;;;;;4913506;28;20137;-81
2023/06/23 06:28:36;;;;;;;16.23;12.13;;;;;;;;;;4916895;28;20973;-80
2023/06/23 06:31:09;;;;;;;15.85;12.23;;;;;;;;;;4896251;28;20403;-81
2023/06/23 06:33:36;;;;;;;18.75;12.05;;;;;;;;;;4916832;28;20036;-81
2023/06/23 06:36:04;;;;;;;16.65;13.07;;;;;;;;;;4915457;29;20047;-82
2023/06/23 06:38:37;;;;;;;14.50;11.95;;;;;;;;;;4913853;28;20471;-80
2023/06/23 06:41:05;;;;;;;15.35;11.20;;;;;;;;;;4919707;28;20035;-80
2023/06/23 06:43:30;;;;;;;15.48;12.20;;;;;;;;;;4918030;28;20071;-80
2023/06/23 06:45:56;;;;;;;16.55;13.32;;;;;;;;;;4917635;28;20051;-81
2023/06/23 06:48:23;;;;;;;15.98;12.70;;;;;;;;;;4933256;28;20040;-81
2023/06/23 06:50:50;;;;;;;15.47;12.97;;;;;;;;;;4902380;28;20126;-81
2023/06/23 06:53:17;;;;;;;17.60;11.63;;;;;;;;;;4914736;29;20290;-81
2023/06/23 06:55:43;;;;;;;15.83;12.00;;;;;;;;;;4918617;28;20971;-81
2023/06/23 06:58:11;;;;;;;16.48;12.02;;;;;;;;;;4920197;28;20170;-81
2023/06/23 07:00:36;;;;;;;15.70;11.63;;;;;;;;;;4915683;28;20492;-81
2023/06/23 07:03:03;;;;;;;14.82;11.90;;;;;;;;;;4914215;28;20064;-81
2023/06/23 07:05:29;;;;;;;12.43;10.50;;;;;;;;;;4913648;28;20551;-81
2023/06/23 07:07:58;;;;;;;14.43;10.57;;;;;;;;;;4906462;28;20055;-81
2023/06/23 07:10:23;;;;;;;12.10;10.10;;;;;;;;;;4928326;28;20066;-81
2023/06/23 07:12:48;;;;;;;14.70;11.13;;;;;;;;;;4931638;28;20044;-81
2023/06/23 07:15:14;;;;;;;14.60;11.25;;;;;;;;;;4899534;28;20040;-80
2023/06/23 07:17:40;;;;;;;11.05;9.75;;;;;;;;;;4910242;28;20399;-81
2023/06/23 07:20:06;;;;;;;14.68;11.15;;;;;;;;;;4889223;28;20492;-81
2023/06/23 07:22:40;;;;;;;14.93;11.10;;;;;;;;;;4908809;28;20033;-81
2023/06/23 07:25:05;;;;;;;16.05;11.20;;;;;;;;;;4914676;28;20066;-81
2023/06/23 07:27:31;;;;;;;13.40;11.10;;;;;;;;;;4908880;28;20039;-81
2023/06/23 07:29:58;;;;;;;13.45;11.07;;;;;;;;;;4914584;28;20162;-81
2023/06/23 07:32:28;;;;;;;13.77;10.32;;;;;;;;;;4913635;28;20592;-80
2023/06/23 07:34:55;;;;;;;17.65;13.57;;;;;;;;;;4903425;28;20468;-80
2023/06/23 07:37:20;;;;;;;17.08;13.20;;;;;;;;;;4913171;28;20031;-80
2023/06/23 07:39:46;;;;;;;16.45;12.88;;;;;;;;;;4913897;29;20050;-80
2023/06/23 07:42:11;;;;;;;18.40;13.43;;;;;;;;;;4918279;29;20036;-80
2023/06/23 07:44:37;;;;;;;17.90;13.30;;;;;;;;;;4911463;29;20040;-80
2023/06/23 07:47:03;;;;;;;16.38;13.10;;;;;;;;;;4922211;28;20079;-80
2023/06/23 07:49:29;;;;;;;15.82;12.20;;;;;;;;;;4917561;28;20062;-80
2023/06/23 07:51:59;;;;;;;15.40;11.48;;;;;;;;;;4905786;28;20035;-79
2023/06/23 07:54:26;;;;;;;17.52;13.20;;;;;;;;;;4918984;28;20039;-80
2023/06/23 07:56:52;;;;;;;14.93;12.55;;;;;;;;;;4918069;28;20036;-80
2023/06/23 07:59:18;;;;;;;16.83;13.43;;;;;;;;;;4918026;28;20088;-80
2023/06/23 08:01:43;;;;;;;16.83;12.43;;;;;;;;;;4933146;28;20359;-81
2023/06/23 08:04:08;;;;;;;16.15;12.02;;;;;;;;;;4934325;28;20044;-82
2023/06/23 08:06:38;;;;;;;16.05;12.60;;;;;;;;;;4918694;28;20059;-80
2023/06/23 08:09:04;;;;;;;16.83;13.38;;;;;;;;;;4919601;28;20044;-81
2023/06/23 08:11:30;;;;;;;16.38;12.48;;;;;;;;;;4908974;28;20126;-80
2023/06/23 08:13:55;;;;;;;18.35;13.02;;;;;;;;;;4915960;28;20093;-80
2023/06/23 08:16:21;;;;;;;19.80;12.18;;;;;;;;;;4919330;28;20046;-80
2023/06/23 08:18:46;;;;;;;15.02;11.50;;;;;;;;;;4933965;28;20058;-79
2023/06/23 08:21:12;;;;;;;15.55;11.45;;;;;;;;;;4916040;28;20121;-80
2023/06/23 08:23:38;;;;;;;14.88;11.52;;;;;;;;;;4917044;28;20369;-80
2023/06/23 08:26:03;;;;;;;14.63;11.45;;;;;;;;;;4918373;28;20044;-80
2023/06/23 08:28:29;;;;;;;15.38;11.73;;;;;;;;;;4919277;28;20058;-80
2023/06/23 08:30:55;;;;;;;14.18;11.30;;;;;;;;;;4910824;28;20364;-80
2023/06/23 08:33:20;;;;;;;14.73;10.95;;;;;;;;;;4919225;28;20396;-79
2023/06/23 08:35:46;;;;;;;13.38;10.55;;;;;;;;;;4913854;28;20040;-81
2023/06/23 08:38:14;;;;;;;15.07;11.52;;;;;;;;;;4918773;28;20027;-80
2023/06/23 08:40:40;;;;;;;13.20;11.05;;;;;;;;;;4922602;28;20376;-80
2023/06/23 08:43:09;;;;;;;15.73;11.40;;;;;;;;;;4908825;28;20119;-80
2023/06/23 08:45:37;;;;;;;13.73;11.38;;;;;;;;;;4914733;28;20551;-80
2023/06/23 08:48:03;;;;;;;13.23;11.07;;;;;;;;;;4908758;28;20048;-80
2023/06/23 08:50:29;;;;;;;15.73;11.15;;;;;;;;;;4921675;28;20920;-80
2023/06/23 08:52:59;;;;;;;13.70;10.10;;;;;;;;;;4916862;28;20047;-80
2023/06/23 08:55:25;;;;;;;14.68;10.48;;;;;;;;;;4919162;28;20043;-80
2023/06/23 08:57:51;;;;;;;12.50;10.23;;;;;;;;;;4922455;28;20098;-80
2023/06/23 09:00:17;;;;;;;12.35;10.30;;;;;;;;;;4917688;29;20047;-80
2023/06/23 09:02:42;;;;;;;10.98;9.63;;;;;;;;;;4931659;28;20491;-80
2023/06/23 09:05:08;;;;;;;12.10;9.52;;;;;;;;;;4932281;28;20513;-81
2023/06/23 09:07:34;;;;;;;12.85;9.18;;;;;;;;;;4915522;28;20636;-80
2023/06/23 09:10:00;;;;;;;11.80;9.50;;;;;;;;;;4915841;28;20044;-80
2023/06/23 09:12:25;;;;;;;11.85;9.23;;;;;;;;;;4911309;28;20050;-80
2023/06/23 09:14:51;;;;;;;11.90;9.10;;;;;;;;;;4913938;28;20078;-80
2023/06/23 09:17:18;;;;;;;11.88;8.98;;;;;;;;;;4923365;28;20377;-79
2023/06/23 09:19:57;;;;;;;11.37;8.73;;;;;;;;;;4911020;29;20031;-80
2023/06/23 09:22:23;;;;;;;11.75;9.15;;;;;;;;;;4933312;28;20334;-80
2023/06/23 09:24:49;;;;;;;11.45;8.95;;;;;;;;;;4914998;28;20047;-80
2023/06/23 09:27:14;;;;;;;10.85;9.18;;;;;;;;;;4912817;29;20507;-80
2023/06/23 09:29:40;;;;;;;12.68;9.48;;;;;;;;;;4923045;28;20047;-80
2023/06/23 09:32:09;;;;;;;12.77;9.10;;;;;;;;;;4910335;28;20479;-80
2023/06/23 09:34:35;;;;;;;11.23;8.80;;;;;;;;;;4915338;28;20492;-81
2023/06/23 09:37:07;;;;;;;11.82;9.38;;;;;;;;;;4914950;28;20046;-81
2023/06/23 09:39:37;;;;;;;12.30;9.20;;;;;;;;;;4909775;28;20035;-81
2023/06/23 09:42:08;;;;;;;11.70;9.35;;;;;;;;;;4929645;28;20412;-81
2023/06/23 09:44:38;;;;;;;12.80;9.50;;;;;;;;;;4906650;29;20877;-80
2023/06/23 09:47:04;;;;;;;13.23;9.35;;;;;;;;;;4911000;28;20389;-81
2023/06/23 09:49:43;;;;;;;11.18;9.52;;;;;;;;;;4931689;28;20051;-80
2023/06/23 09:52:11;;;;;;;12.57;9.77;;;;;;;;;;4920625;28;20445;-81
2023/06/23 09:54:42;;;;;;;12.68;10.60;;;;;;;;;;4932319;28;20597;-80
2023/06/23 09:57:15;;;;;;;13.25;9.82;;;;;;;;;;4908639;28;20514;-80
2023/06/23 09:59:44;;;;;;;14.25;11.63;;;;;;;;;;4931659;28;20524;-80
2023/06/23 10:02:23;;;;;;;15.23;13.60;;;;;;;;;;4910540;28;20040;-80
2023/06/23 10:04:49;;;;;;;17.45;14.57;;;;;;;;;;4933061;28;20526;-81
2023/06/23 10:07:22;;;;;;;18.58;15.57;;;;;;;;;;4931618;28;20114;-81
2023/06/23 10:09:52;;;;;;;18.67;15.55;;;;;;;;;;4919217;29;20050;-81
2023/06/23 10:12:27;;;;;;;21.60;16.95;;;;;;;;;;4909456;28;20156;-80
2023/06/23 10:14:54;;;;;;;21.15;17.23;;;;;;;;;;4918225;28;20058;-80
2023/06/23 10:17:20;;;;;;;20.85;17.83;;;;;;;;;;4916882;28;20039;-80
2023/06/23 10:19:54;;;;;;;22.33;18.25;;;;;;;;;;4915156;29;20043;-81
2023/06/23 10:22:21;;;;;;;22.92;18.73;;;;;;;;;;4908918;28;20403;-80
2023/06/23 10:24:51;;;;;;;23.23;19.37;;;;;;;;;;4908461;29;20499;-81
2023/06/23 10:27:25;;;;;;;22.70;18.58;;;;;;;;;;4901136;29;20492;-81
2023/06/23 10:29:59;;;;;;;19.50;17.40;;;;;;;;;;4899643;28;20484;-80
2023/06/23 10:32:33;;;;;;;21.77;18.20;;;;;;;;;;4905412;28;20399;-80
2023/06/23 10:35:01;;;;;;;21.75;17.27;;;;;;;;;;4915337;28;20853;-80
2023/06/23 10:37:27;;;;;;;20.35;16.40;;;;;;;;;;4943398;28;20395;-81
2023/06/23 10:39:57;;;;;;;20.90;17.48;;;;;;;;;;4914832;28;20032;-86
2023/06/23 10:42:23;;;;;;;20.45;17.15;;;;;;;;;;4918481;28;20395;-87
2023/06/23 10:44:57;;;;;;;19.02;16.15;;;;;;;;;;4928126;28;20043;-86
2023/06/23 10:47:23;;;;;;;20.10;16.42;;;;;;;;;;4915260;28;20450;-87
2023/06/23 10:49:56;;;;;;;19.50;16.92;;;;;;;;;;4914870;28;20225;-86
2023/06/23 10:52:22;;;;;;;19.83;16.63;;;;;;;;;;4906975;28;20059;-85
2023/06/23 10:54:47;;;;;;;18.58;15.68;;;;;;;;;;4920689;29;20570;-85
2023/06/23 10:57:14;;;;;;;16.88;14.38;;;;;;;;;;4916076;29;20039;-80
2023/06/23 10:59:43;;;;;;;16.20;14.20;;;;;;;;;;4909819;28;20036;-80
2023/06/23 11:02:09;;;;;;;17.08;14.65;;;;;;;;;;4929401;28;20043;-81
2023/06/23 11:04:38;;;;;;;16.58;13.32;;;;;;;;;;4930536;28;20044;-80
2023/06/23 11:07:06;;;;;;;15.70;13.82;;;;;;;;;;4901843;28;20128;-80
2023/06/23 11:09:58;;;;;;;16.30;13.23;;;;;;;;;;4896974;28;20046;-80
2023/06/23 11:12:34;;;;;;;13.98;11.70;;;;;;;;;;4931981;28;20476;-80
2023/06/23 11:15:04;;;;;;;12.55;10.05;;;;;;;;;;4911035;28;20130;-80
2023/06/23 11:17:29;;;;;;;13.15;9.93;;;;;;;;;;4917895;28;20043;-80
2023/06/23 11:19:56;;;;;;;11.20;9.60;;;;;;;;;;4919728;28;20231;-85
2023/06/23 11:22:25;;;;;;;11.18;9.00;;;;;;;;;;4909080;28;20042;-85
2023/06/23 11:24:54;;;;;;;12.35;9.40;;;;;;;;;;4926562;28;20054;-86
2023/06/23 11:27:20;;;;;;;10.98;8.65;;;;;;;;;;4917152;28;20491;-86
2023/06/23 11:30:13;;;;;;;10.23;8.68;;;;;;;;;;4909966;29;20039;-86
2023/06/23 11:32:39;;;;;;;8.90;7.57;;;;;;;;;;4913986;28;20090;-85
2023/06/23 11:35:06;;;;;;;11.65;8.40;;;;;;;;;;4902314;29;20063;-86
2023/06/23 11:37:33;;;;;;;10.35;8.30;;;;;;;;;;4920709;28;20153;-86
2023/06/23 11:40:00;;;;;;;10.52;8.30;;;;;;;;;;4907613;28;20047;-86
2023/06/23 11:42:26;;;;;;;10.25;8.13;;;;;;;;;;4916625;28;20055;-85
2023/06/23 11:44:58;;;;;;;10.68;8.30;;;;;;;;;;4912612;28;20054;-87
2023/06/23 11:47:25;;;;;;;10.32;8.50;;;;;;;;;;4932787;28;20118;-87
2023/06/23 11:49:54;;;;;;;11.20;7.95;;;;;;;;;;4923528;28;20178;-86
2023/06/23 11:52:20;;;;;;;10.52;7.50;;;;;;;;;;4919638;28;20089;-86
2023/06/23 11:54:47;;;;;;;10.48;6.82;;;;;;;;;;4932464;29;20131;-85
2023/06/23 11:57:15;;;;;;;8.45;6.75;;;;;;;;;;4918508;29;20070;-85
2023/06/23 11:59:40;;;;;;;9.05;7.05;;;;;;;;;;4899990;29;20119;-87
2023/06/23 12:02:06;;;;;;;9.98;7.30;;;;;;;;;;4931052;28;20126;-86
2023/06/23 12:04:39;;;;;;;10.57;7.43;;;;;;;;;;4915450;28;20451;-86
2023/06/23 12:07:04;;;;;;;12.88;7.60;;;;;;;;;;4910849;28;20043;-87
2023/06/23 12:09:30;;;;;;;10.85;6.88;;;;;;;;;;4927166;28;20039;-87
2023/06/23 12:12:17;;;;;;;8.98;6.93;;;;;;;;;;4886850;28;20043;-88
2023/06/23 12:14:43;;;;;;;9.43;7.15;;;;;;;;;;4864148;29;20044;-87
2023/06/23 12:17:10;;;;;;;11.27;7.47;;;;;;;;;;4858546;29;20072;-86
2023/06/23 12:19:38;;;;;;;10.68;8.23;;;;;;;;;;4863504;29;20047;-87
2023/06/23 12:22:03;;;;;;;;;;;;;;;;;;4873406;29;20925;-87
2023/06/23 12:24:46;;;;;;;9.85;7.85;;;;;;;;;;4862767;29;19923;-85
2023/06/23 12:27:11;;;;;;;10.90;9.10;;;;;;;;;;4888230;29;20059;-86
2023/06/23 12:29:43;;;;;;;11.38;9.18;;;;;;;;;;4857306;29;20052;-86
2023/06/23 12:32:09;;;;;;;11.27;9.02;;;;;;;;;;4873189;29;20048;-86
2023/06/23 12:34:48;;;;;;;11.25;9.38;;;;;;;;;;4853634;29;20048;-84
2023/06/23 12:37:17;;;;;;;10.98;7.78;;;;;;;;;;4857151;29;20033;-84
2023/06/23 12:39:51;;;;;;;9.63;6.85;;;;;;;;;;4874491;29;20044;-85
2023/06/23 12:42:17;;;;;;;10.80;6.97;;;;;;;;;;4851073;29;20442;-84
2023/06/23 12:44:42;;;;;;;11.30;6.53;;;;;;;;;;4872635;29;20119;-85
2023/06/23 12:47:08;;;;;;;10.82;7.25;;;;;;;;;;4873312;29;20069;-85
2023/06/23 12:49:37;;;;;;;11.10;6.53;;;;;;;;;;4873391;29;20064;-86
2023/06/23 12:52:04;;;;;;;10.38;6.10;;;;;;;;;;4914041;28;20046;-85
2023/06/23 12:54:29;;;;;;;8.88;5.72;;;;;;;;;;4922804;28;20252;-84
2023/06/23 12:57:02;;;;;;;9.45;6.13;;;;;;;;;;4931996;28;20142;-86
2023/06/23 12:59:28;;;;;;;7.25;5.18;;;;;;;;;;4905662;28;20035;-85
2023/06/23 13:01:56;;;;;;;9.88;5.70;;;;;;;;;;4918623;28;20527;-85
2023/06/23 13:04:22;;;;;;;9.70;5.38;;;;;;;;;;4904118;28;20043;-85
2023/06/23 13:06:49;;;;;;;8.63;5.10;;;;;;;;;;4903855;29;20091;-86
2023/06/23 13:09:15;;;;;;;;;;;;;;;;;;4906526;29;20114;-86
2023/06/23 13:11:40;;;;;;;8.95;5.25;;;;;;;;;;4906212;28;19918;-86
2023/06/23 13:14:06;;;;;;;9.45;4.82;;;;;;;;;;4908564;28;20126;-87
2023/06/23 13:16:32;;;;;;;8.70;4.45;;;;;;;;;;4918205;28;20070;-85
2023/06/23 13:18:58;;;;;;;7.55;4.85;;;;;;;;;;4906234;28;20093;-88
2023/06/23 13:21:24;;;;;;;9.40;4.88;;;;;;;;;;4919744;28;20043;-87
2023/06/23 13:23:52;;;;;;;7.80;4.57;;;;;;;;;;4906319;28;20107;-88
2023/06/23 13:26:18;;;;;;;8.85;5.60;;;;;;;;;;4923819;28;20475;-88
2023/06/23 13:28:43;;;;;;;9.10;5.45;;;;;;;;;;4913889;28;20102;-85
2023/06/23 13:31:26;;;;;;;8.63;5.32;;;;;;;;;;4911353;28;20052;-87
2023/06/23 13:34:21;;;;;;;9.10;5.70;;;;;;;;;;4931419;28;20122;-84
2023/06/23 13:36:49;;;;;;;7.82;5.50;;;;;;;;;;4902027;29;20039;-83
2023/06/23 13:39:19;;;;;;;9.95;6.18;;;;;;;;;;4921623;28;20094;-82
2023/06/23 13:41:44;;;;;;;9.48;5.78;;;;;;;;;;4901849;29;20040;-83
2023/06/23 13:44:27;;;;;;;13.82;6.95;;;;;;;;;;4904215;28;20070;-82
2023/06/23 13:46:53;;;;;;;10.35;6.25;;;;;;;;;;4913769;28;20472;-80
2023/06/23 13:49:21;;;;;;;8.35;5.55;;;;;;;;;;4923621;29;20104;-80
2023/06/23 13:51:46;;;;;;;7.88;5.38;;;;;;;;;;4904257;28;20448;-80
2023/06/23 13:54:15;;;;;;;11.00;5.40;;;;;;;;;;4932276;28;20119;-80
2023/06/23 13:56:40;;;;;;;8.88;5.55;;;;;;;;;;4903038;28;20495;-81
2023/06/23 13:59:06;;;;;;;8.07;5.22;;;;;;;;;;4916506;28;20095;-80
2023/06/23 14:01:31;;;;;;;7.32;4.57;;;;;;;;;;4931584;28;20066;-80
2023/06/23 14:03:56;;;;;;;7.93;4.78;;;;;;;;;;4906463;29;20531;-81
2023/06/23 14:06:22;;;;;;;10.80;4.95;;;;;;;;;;4913410;28;20063;-81
2023/06/23 14:08:48;;;;;;;8.27;4.80;;;;;;;;;;4918232;29;20039;-81
2023/06/23 14:11:14;;;;;;;7.85;3.80;;;;;;;;;;4917460;29;20927;-80
2023/06/23 14:13:41;;;;;;;6.70;4.00;;;;;;;;;;4920908;29;20063;-80
2023/06/23 14:16:07;;;;;;;7.13;4.00;;;;;;;;;;4929738;28;20035;-80
2023/06/23 14:18:38;;;;;;;7.22;4.30;;;;;;;;;;4925243;28;20035;-80
2023/06/23 14:21:04;;;;;;;5.93;4.03;;;;;;;;;;4908288;28;20522;-81
2023/06/23 14:23:29;;;;;;;6.32;3.88;;;;;;;;;;4926325;28;20035;-81
2023/06/23 14:25:55;;;;;;;6.53;3.75;;;;;;;;;;4917297;28;20040;-80
2023/06/23 14:28:21;;;;;;;7.15;3.88;;;;;;;;;;4921164;28;20106;-81
2023/06/23 14:30:46;;;;;;;7.25;4.07;;;;;;;;;;4917970;29;20063;-80
2023/06/23 14:33:11;;;;;;;7.28;4.32;;;;;;;;;;4918275;28;20108;-80
2023/06/23 14:35:37;;;;;;;5.63;3.45;;;;;;;;;;4912588;28;20032;-81